createdAt,value
2022-09-23T00:02:18.707Z,45.10
2022-09-23T00:04:47.043Z,45.10
2022-09-23T00:07:15.641Z,45.30
2022-09-23T00:09:43.968Z,45.30
2022-09-23T00:12:12.452Z,45.30
2022-09-23T00:14:42.774Z,45.10
2022-09-23T00:17:11.101Z,45.40
2022-09-23T00:19:40.756Z,45.70
2022-09-23T00:22:09.159Z,45.90
2022-09-23T00:24:37.566Z,45.70
2022-09-23T00:27:06.251Z,46.20
2022-09-23T00:29:34.832Z,46.10
2022-09-23T00:32:05.134Z,46.00
2022-09-23T00:34:34.044Z,46.00
2022-09-23T00:37:02.263Z,46.20
2022-09-23T00:39:30.682Z,46.30
2022-09-23T00:41:58.967Z,46.50
2022-09-23T00:44:46.045Z,46.30
2022-09-23T00:47:21.426Z,46.40
2022-09-23T00:49:54.071Z,45.70
2022-09-23T00:52:25.128Z,45.70
2022-09-23T00:54:55.364Z,45.50
2022-09-23T00:57:26.306Z,45.80
2022-09-23T00:59:55.152Z,45.60
2022-09-23T01:02:25.267Z,46.00
2022-09-23T01:04:53.545Z,46.70
2022-09-23T01:07:22.272Z,46.50
2022-09-23T01:09:51.180Z,46.40
2022-09-23T01:12:46.146Z,46.70
2022-09-23T01:15:19.471Z,47.40
2022-09-23T01:18:00.074Z,47.50
2022-09-23T01:20:59.550Z,47.80
2022-09-23T01:23:56.112Z,47.70
2022-09-23T01:26:59.576Z,47.70
2022-09-23T01:30:04.650Z,47.50
2022-09-23T01:32:45.332Z,48.30
2022-09-23T01:35:25.093Z,48.10
2022-09-23T01:38:00.498Z,47.90
2022-09-23T01:40:38.683Z,47.90
2022-09-23T01:43:11.078Z,47.90
2022-09-23T01:45:45.126Z,48.10
2022-09-23T01:48:20.212Z,48.10
2022-09-23T01:50:59.874Z,48.20
2022-09-23T01:53:40.517Z,48.00
2022-09-23T01:56:15.142Z,47.50
2022-09-23T01:58:50.518Z,47.70
2022-09-23T02:01:22.293Z,47.50
2022-09-23T02:03:56.940Z,47.50
2022-09-23T02:06:30.107Z,47.70
2022-09-23T02:09:01.478Z,47.50
2022-09-23T02:11:34.067Z,47.40
2022-09-23T02:14:09.150Z,47.70
2022-09-23T02:16:40.293Z,47.60
2022-09-23T02:19:14.550Z,47.60
2022-09-23T02:21:47.317Z,47.80
2022-09-23T02:24:19.257Z,48.10
2022-09-23T02:26:53.582Z,48.50
2022-09-23T02:29:30.573Z,48.60
2022-09-23T02:32:05.424Z,48.40
2022-09-23T02:34:44.077Z,48.10
2022-09-23T02:37:22.838Z,47.90
2022-09-23T02:40:14.212Z,47.90
2022-09-23T02:42:49.137Z,47.90
2022-09-23T02:45:17.545Z,47.10
2022-09-23T02:47:52.718Z,47.20
2022-09-23T02:50:23.288Z,47.60
2022-09-23T02:52:51.549Z,48.00
2022-09-23T02:55:23.526Z,48.00
2022-09-23T02:57:52.412Z,48.30
2022-09-23T03:00:21.223Z,47.90
2022-09-23T03:03:12.180Z,47.50
2022-09-23T03:05:51.380Z,47.50
2022-09-23T03:08:44.240Z,47.30
2022-09-23T03:11:13.757Z,47.50
2022-09-23T03:13:53.414Z,47.10
2022-09-23T03:16:33.415Z,47.20
2022-09-23T03:19:13.586Z,47.40
2022-09-23T03:21:49.658Z,47.40
2022-09-23T03:24:20.994Z,47.40
2022-09-23T03:26:50.927Z,47.40
2022-09-23T03:29:21.396Z,47.20
2022-09-23T03:31:50.296Z,47.20
2022-09-23T03:34:24.055Z,47.60
2022-09-23T03:37:00.557Z,47.90
2022-09-23T03:39:35.695Z,47.80
2022-09-23T03:42:16.805Z,47.70
2022-09-23T03:44:47.018Z,48.10
2022-09-23T03:47:16.788Z,47.70
2022-09-23T03:49:48.228Z,47.90
2022-09-23T03:52:20.448Z,48.30
2022-09-23T03:54:49.705Z,48.40
2022-09-23T03:57:18.190Z,47.80
2022-09-23T03:59:46.513Z,47.90
2022-09-23T04:02:16.460Z,48.10
2022-09-23T04:04:45.399Z,47.90
2022-09-23T04:07:14.508Z,47.80
2022-09-23T04:09:45.891Z,47.90
2022-09-23T04:12:16.781Z,47.60
2022-09-23T04:14:47.049Z,47.70
2022-09-23T04:17:16.116Z,47.70
2022-09-23T04:19:45.068Z,48.00
2022-09-23T04:22:14.414Z,48.10
2022-09-23T04:24:42.636Z,47.80
2022-09-23T04:27:12.328Z,48.20
2022-09-23T04:29:41.410Z,48.50
2022-09-23T04:32:10.218Z,47.80
2022-09-23T04:34:38.426Z,48.40
2022-09-23T04:37:06.765Z,48.10
2022-09-23T04:39:35.036Z,48.00
2022-09-23T04:42:04.285Z,48.10
2022-09-23T04:44:34.959Z,48.10
2022-09-23T04:47:04.494Z,48.00
2022-09-23T04:49:33.756Z,48.00
2022-09-23T04:52:03.139Z,47.90
2022-09-23T04:54:31.221Z,48.30
2022-09-23T04:56:59.638Z,48.20
2022-09-23T04:59:28.675Z,48.10
2022-09-23T05:01:59.149Z,48.60
2022-09-23T05:04:27.741Z,48.40
2022-09-23T05:06:59.496Z,48.30
2022-09-23T05:09:32.011Z,48.60
2022-09-23T05:12:00.729Z,48.30
2022-09-23T05:14:28.955Z,48.30
2022-09-23T05:16:59.033Z,48.10
2022-09-23T05:19:27.194Z,48.40
2022-09-23T05:21:55.424Z,48.60
2022-09-23T05:24:24.534Z,48.30
2022-09-23T05:26:54.183Z,48.10
2022-09-23T05:29:22.584Z,48.40
2022-09-23T05:31:50.749Z,48.30
2022-09-23T05:34:21.431Z,47.90
2022-09-23T05:36:49.825Z,47.90
2022-09-23T05:39:18.158Z,48.00
2022-09-23T05:41:46.625Z,47.80
2022-09-23T05:44:15.083Z,47.80
2022-09-23T05:46:43.720Z,48.00
2022-09-23T05:49:12.375Z,48.20
2022-09-23T05:51:41.931Z,47.90
2022-09-23T05:54:10.501Z,48.40
2022-09-23T05:56:38.975Z,48.10
2022-09-23T05:59:07.473Z,48.20
2022-09-23T06:01:38.631Z,48.30
2022-09-23T06:04:08.695Z,48.40
2022-09-23T06:06:48.866Z,48.40
2022-09-23T06:09:17.098Z,48.20
2022-09-23T06:11:46.922Z,48.30
2022-09-23T06:14:15.641Z,48.30
2022-09-23T06:16:45.067Z,48.70
2022-09-23T06:19:13.143Z,48.40
2022-09-23T06:21:42.105Z,48.70
2022-09-23T06:24:16.069Z,48.80
2022-09-23T06:26:48.623Z,48.70
2022-09-23T06:29:18.239Z,48.50
2022-09-23T06:31:46.604Z,48.80
2022-09-23T06:34:15.655Z,48.70
2022-09-23T06:36:46.344Z,48.90
2022-09-23T06:39:16.699Z,49.00
2022-09-23T06:41:46.305Z,48.80
2022-09-23T06:44:14.625Z,48.80
2022-09-23T06:46:43.164Z,48.80
2022-09-23T06:49:13.282Z,49.20
2022-09-23T06:51:41.959Z,49.10
2022-09-23T06:54:11.100Z,49.30
2022-09-23T06:56:41.434Z,47.90
2022-09-23T06:59:12.960Z,48.10
2022-09-23T07:01:42.322Z,48.10
2022-09-23T07:04:12.702Z,47.90
2022-09-23T07:06:41.477Z,47.90
2022-09-23T07:09:11.091Z,47.80
2022-09-23T07:11:41.058Z,48.10
2022-09-23T07:14:10.508Z,47.70
2022-09-23T07:16:42.808Z,47.80
2022-09-23T07:19:13.704Z,47.70
2022-09-23T07:21:43.558Z,47.80
2022-09-23T07:24:11.698Z,47.70
2022-09-23T07:26:45.590Z,47.50
2022-09-23T07:29:15.729Z,47.80
2022-09-23T07:31:44.674Z,47.50
2022-09-23T07:34:13.291Z,47.80
2022-09-23T07:36:42.048Z,48.10
2022-09-23T07:39:12.188Z,47.50
2022-09-23T07:41:44.491Z,47.70
2022-09-23T07:44:13.568Z,47.50
2022-09-23T07:46:42.159Z,47.70
2022-09-23T07:49:12.124Z,48.00
2022-09-23T07:51:41.854Z,48.20
2022-09-23T07:54:13.763Z,47.50
2022-09-23T07:56:45.084Z,47.90
2022-09-23T07:59:18.191Z,46.30
2022-09-23T08:01:48.866Z,46.50
2022-09-23T08:04:20.432Z,46.10
2022-09-23T08:06:50.472Z,45.70
2022-09-23T08:09:21.004Z,45.50
2022-09-23T08:11:50.984Z,45.10
2022-09-23T08:14:22.375Z,45.40
2022-09-23T08:16:52.209Z,45.10
2022-09-23T08:19:20.894Z,44.70
2022-09-23T08:21:52.160Z,44.80
2022-09-23T08:24:23.773Z,44.80
2022-09-23T08:26:54.645Z,44.40
2022-09-23T08:29:26.041Z,44.00
2022-09-23T08:31:55.620Z,43.50
2022-09-23T08:34:29.137Z,43.90
2022-09-23T08:36:57.603Z,43.70
2022-09-23T08:39:26.000Z,44.20
2022-09-23T08:42:07.120Z,43.50
2022-09-23T08:44:47.879Z,42.90
2022-09-23T08:47:20.647Z,42.10
2022-09-23T08:50:00.267Z,42.10
2022-09-23T08:52:35.608Z,41.50
2022-09-23T08:55:06.148Z,41.30
2022-09-23T08:57:43.887Z,41.70
2022-09-23T09:00:20.084Z,42.00
2022-09-23T09:02:51.361Z,41.80
2022-09-23T09:05:26.641Z,40.80
2022-09-23T09:07:59.129Z,40.80
2022-09-23T09:10:34.074Z,40.70
2022-09-23T09:13:07.552Z,39.90
2022-09-23T09:15:42.920Z,39.40
2022-09-23T09:18:19.843Z,39.20
2022-09-23T09:21:02.023Z,39.10
2022-09-23T09:23:37.057Z,38.60
2022-09-23T09:26:11.236Z,39.30
2022-09-23T09:28:44.676Z,39.30
2022-09-23T09:31:24.204Z,38.50
2022-09-23T09:33:58.067Z,38.40
2022-09-23T09:36:37.023Z,37.70
2022-09-23T09:39:06.845Z,37.50
2022-09-23T09:41:35.547Z,37.30
2022-09-23T09:44:18.544Z,37.50
2022-09-23T09:46:55.079Z,37.20
2022-09-23T09:49:38.144Z,37.40
2022-09-23T09:52:16.255Z,37.70
2022-09-23T09:54:44.667Z,36.70
2022-09-23T09:57:33.541Z,36.20
2022-09-23T10:00:34.845Z,36.00
2022-09-23T10:03:08.473Z,35.70
2022-09-23T10:05:50.018Z,34.50
2022-09-23T10:08:26.786Z,34.30
2022-09-23T10:11:02.616Z,33.90
2022-09-23T10:13:31.438Z,33.80
2022-09-23T10:16:03.838Z,33.50
2022-09-23T10:18:36.111Z,33.10
2022-09-23T10:21:09.300Z,33.10
2022-09-23T10:23:45.051Z,33.50
2022-09-23T10:26:17.361Z,32.40
2022-09-23T10:28:50.398Z,32.20
2022-09-23T10:31:25.467Z,32.00
2022-09-23T10:33:57.433Z,32.50
2022-09-23T10:36:27.005Z,31.70
2022-09-23T10:39:18.837Z,31.70
2022-09-23T10:42:16.372Z,31.30
2022-09-23T10:45:17.266Z,30.30
2022-09-23T10:47:57.166Z,30.50
2022-09-23T10:50:36.756Z,31.50
2022-09-23T10:53:14.417Z,31.80
2022-09-23T10:55:56.704Z,30.40
2022-09-23T10:59:04.938Z,31.10
2022-09-23T11:01:42.758Z,31.10
2022-09-23T11:04:25.959Z,30.60
2022-09-23T11:07:10.119Z,29.20
2022-09-23T11:09:50.255Z,29.40
2022-09-23T11:12:33.507Z,28.80
2022-09-23T11:15:16.543Z,27.70
2022-09-23T11:18:16.661Z,27.80
2022-09-23T11:20:55.872Z,26.60
2022-09-23T11:23:57.174Z,26.50
2022-09-23T11:26:40.805Z,26.80
2022-09-23T11:29:44.896Z,26.70
2022-09-23T11:32:32.246Z,27.50
2022-09-23T11:35:12.036Z,25.80
2022-09-23T11:37:47.035Z,25.20
2022-09-23T11:40:20.938Z,25.60
2022-09-23T11:42:56.709Z,25.50
2022-09-23T11:45:31.240Z,25.40
2022-09-23T11:48:04.216Z,25.50
2022-09-23T11:50:37.375Z,25.60
2022-09-23T11:53:14.516Z,24.00
2022-09-23T11:55:57.353Z,24.30
2022-09-23T11:58:31.425Z,25.10
2022-09-23T12:01:04.300Z,25.60
2022-09-23T12:03:45.279Z,24.40
2022-09-23T12:06:18.665Z,24.90
2022-09-23T12:08:54.973Z,24.00
2022-09-23T12:11:30.087Z,23.80
2022-09-23T12:14:11.058Z,23.50
2022-09-23T12:16:57.293Z,22.80
2022-09-23T12:19:47.759Z,22.90
2022-09-23T12:22:32.806Z,22.20
2022-09-23T12:25:16.659Z,22.50
2022-09-23T12:27:48.636Z,22.20
2022-09-23T12:30:20.645Z,21.90
2022-09-23T12:32:49.762Z,22.50
2022-09-23T12:35:27.230Z,22.90
2022-09-23T12:37:55.788Z,22.90
2022-09-23T12:40:34.132Z,23.60
2022-09-23T12:43:03.368Z,23.20
2022-09-23T12:45:40.255Z,23.80
2022-09-23T12:48:28.447Z,23.60
2022-09-23T12:51:08.043Z,22.80
2022-09-23T12:54:15.186Z,22.00
2022-09-23T12:57:03.486Z,22.50
2022-09-23T12:59:57.301Z,23.40
2022-09-23T13:02:33.038Z,23.00
2022-09-23T13:05:38.404Z,23.30
2022-09-23T13:08:09.874Z,23.30
2022-09-23T13:10:48.302Z,23.00
2022-09-23T13:13:24.343Z,23.30
2022-09-23T13:15:55.910Z,24.10
2022-09-23T13:18:26.014Z,24.20
2022-09-23T13:20:56.402Z,23.00
2022-09-23T13:23:26.746Z,22.30
2022-09-23T13:26:00.607Z,22.20
2022-09-23T13:28:34.261Z,22.60
2022-09-23T13:31:06.409Z,22.20
2022-09-23T13:33:45.426Z,21.90
2022-09-23T13:36:16.189Z,21.40
2022-09-23T13:38:47.230Z,21.90
2022-09-23T13:41:18.975Z,22.60
2022-09-23T13:43:51.994Z,22.50
2022-09-23T13:46:24.569Z,21.80
2022-09-23T13:48:55.191Z,20.70
2022-09-23T13:51:25.707Z,20.30
2022-09-23T13:53:56.000Z,20.40
2022-09-23T13:56:26.108Z,21.20
2022-09-23T13:59:11.523Z,21.50
2022-09-23T14:01:39.620Z,20.80
2022-09-23T14:04:24.422Z,21.40
2022-09-23T14:06:56.522Z,20.60
2022-09-23T14:09:28.673Z,20.60
2022-09-23T14:12:00.679Z,19.60
2022-09-23T14:14:32.256Z,20.90
2022-09-23T14:17:00.690Z,20.80
2022-09-23T14:19:29.014Z,21.80
2022-09-23T14:21:59.003Z,22.30
2022-09-23T14:24:34.286Z,21.40
2022-09-23T14:27:11.451Z,21.40
2022-09-23T14:29:43.866Z,20.10
2022-09-23T14:32:16.083Z,20.60
2022-09-23T14:34:48.230Z,20.70
2022-09-23T14:37:44.181Z,20.50
2022-09-23T14:40:16.657Z,21.30
2022-09-23T14:42:48.711Z,21.70
2022-09-23T14:45:22.492Z,21.40
2022-09-23T14:47:53.635Z,20.90
2022-09-23T14:50:47.570Z,21.30
2022-09-23T14:53:38.046Z,21.20
2022-09-23T14:56:16.566Z,20.70
2022-09-23T14:58:52.350Z,21.70
2022-09-23T15:01:36.018Z,22.20
2022-09-23T15:04:16.424Z,22.30
2022-09-23T15:06:51.926Z,22.70
2022-09-23T15:09:26.494Z,22.00
2022-09-23T15:11:58.471Z,21.60
2022-09-23T15:14:39.071Z,22.00
2022-09-23T15:17:26.996Z,22.30
2022-09-23T15:19:57.596Z,21.40
2022-09-23T15:22:27.107Z,22.10
2022-09-23T15:25:09.864Z,22.80
2022-09-23T15:27:39.178Z,22.70
2022-09-23T15:30:16.370Z,23.00
2022-09-23T15:32:48.697Z,23.60
2022-09-23T15:35:19.478Z,23.70
2022-09-23T15:37:50.154Z,23.80
2022-09-23T15:40:23.090Z,23.40
2022-09-23T15:42:53.426Z,24.00
2022-09-23T15:45:27.389Z,23.80
2022-09-23T15:48:02.722Z,23.50
2022-09-23T15:50:32.363Z,24.20
2022-09-23T15:53:00.669Z,24.20
2022-09-23T15:55:28.928Z,24.50
2022-09-23T15:57:57.584Z,24.10
2022-09-23T16:00:25.956Z,24.30
2022-09-23T16:02:55.393Z,24.50
2022-09-23T16:05:33.221Z,24.50
2022-09-23T16:08:06.430Z,24.70
2022-09-23T16:10:38.155Z,24.70
2022-09-23T16:13:11.359Z,25.20
2022-09-23T16:15:41.695Z,25.50
2022-09-23T16:18:11.850Z,26.90
2022-09-23T16:20:45.004Z,26.90
2022-09-23T16:23:34.304Z,27.10
2022-09-23T16:26:05.652Z,27.30
2022-09-23T16:28:33.979Z,27.50
2022-09-23T16:31:02.565Z,27.50
2022-09-23T16:33:32.109Z,27.10
2022-09-23T16:36:02.293Z,27.20
2022-09-23T16:38:32.052Z,27.40
2022-09-23T16:41:00.703Z,27.60
2022-09-23T16:43:39.429Z,27.70
2022-09-23T16:46:09.171Z,27.90
2022-09-23T16:48:40.803Z,28.10
2022-09-23T16:51:16.088Z,28.30
2022-09-23T16:53:44.456Z,28.10
2022-09-23T16:56:13.298Z,28.40
2022-09-23T16:58:42.436Z,28.50
2022-09-23T17:01:33.924Z,28.60
2022-09-23T17:04:03.739Z,28.80
2022-09-23T17:06:33.615Z,28.70
2022-09-23T17:09:02.138Z,29.00
2022-09-23T17:11:34.147Z,29.00
2022-09-23T17:14:03.575Z,29.20
2022-09-23T17:16:35.969Z,29.60
2022-09-23T17:19:08.591Z,29.60
2022-09-23T17:21:38.880Z,29.90
2022-09-23T17:24:08.469Z,30.00
2022-09-23T17:26:38.324Z,29.90
2022-09-23T17:29:07.622Z,30.10
2022-09-23T17:31:36.073Z,30.00
2022-09-23T17:34:04.676Z,30.30
2022-09-23T17:36:34.114Z,30.70
2022-09-23T17:39:05.574Z,30.60
2022-09-23T17:41:34.661Z,30.50
2022-09-23T17:44:04.963Z,31.10
2022-09-23T17:46:34.827Z,30.90
2022-09-23T17:49:04.926Z,31.20
2022-09-23T17:51:35.982Z,32.90
2022-09-23T17:54:12.101Z,32.70
2022-09-23T17:56:41.534Z,32.90
2022-09-23T17:59:12.573Z,33.00
2022-09-23T18:01:41.151Z,33.10
2022-09-23T18:04:09.394Z,32.90
2022-09-23T18:06:38.842Z,33.20
2022-09-23T18:09:09.587Z,33.10
2022-09-23T18:11:42.426Z,33.00
2022-09-23T18:14:15.482Z,33.20
2022-09-23T18:16:45.234Z,33.40
2022-09-23T18:19:22.325Z,33.20
2022-09-23T18:21:52.649Z,33.50
2022-09-23T18:24:31.855Z,33.60
2022-09-23T18:27:03.134Z,33.70
2022-09-23T18:29:31.562Z,33.50
2022-09-23T18:32:01.190Z,33.80
2022-09-23T18:34:29.739Z,33.90
2022-09-23T18:36:58.030Z,34.20
2022-09-23T18:39:26.393Z,34.20
2022-09-23T18:41:54.952Z,34.50
2022-09-23T18:44:24.910Z,34.30
2022-09-23T18:46:53.256Z,34.30
2022-09-23T18:49:39.296Z,34.40
2022-09-23T18:52:09.134Z,34.50
2022-09-23T18:54:37.820Z,34.20
2022-09-23T18:57:06.132Z,34.30
2022-09-23T18:59:36.680Z,34.20
2022-09-23T19:02:05.004Z,34.50
2022-09-23T19:04:33.247Z,34.30
2022-09-23T19:07:01.514Z,34.60
2022-09-23T19:09:30.749Z,34.70
2022-09-23T19:11:59.601Z,34.70
2022-09-23T19:14:27.717Z,34.70
2022-09-23T19:16:58.612Z,34.90
2022-09-23T19:19:30.109Z,35.30
2022-09-23T19:22:00.818Z,35.20
2022-09-23T19:24:30.186Z,35.20
2022-09-23T19:26:58.444Z,35.60
2022-09-23T19:29:27.317Z,35.50
2022-09-23T19:31:59.366Z,35.60
2022-09-23T19:34:30.752Z,35.40
2022-09-23T19:37:01.564Z,35.60
2022-09-23T19:39:31.678Z,35.20
2022-09-23T19:42:00.273Z,35.10
2022-09-23T19:44:28.767Z,35.60
2022-09-23T19:46:58.545Z,35.60
2022-09-23T19:49:27.836Z,35.60
2022-09-23T19:51:56.597Z,35.90
2022-09-23T19:54:27.310Z,36.00
2022-09-23T19:56:56.634Z,35.90
2022-09-23T19:59:26.270Z,35.90
2022-09-23T20:01:54.897Z,35.80
2022-09-23T20:04:24.859Z,35.70
2022-09-23T20:06:54.234Z,35.80
2022-09-23T20:09:23.893Z,35.80
2022-09-23T20:11:52.121Z,35.70
2022-09-23T20:14:20.971Z,36.10
2022-09-23T20:16:50.252Z,36.00
2022-09-23T20:19:20.764Z,36.10
2022-09-23T20:22:10.925Z,36.10
2022-09-23T20:24:39.080Z,36.00
2022-09-23T20:27:10.177Z,36.10
2022-09-23T20:29:39.297Z,35.80
2022-09-23T20:32:08.986Z,35.90
2022-09-23T20:34:38.331Z,35.90
2022-09-23T20:37:07.898Z,36.30
2022-09-23T20:39:36.997Z,36.20
2022-09-23T20:42:09.309Z,36.00
2022-09-23T20:44:37.595Z,36.00
2022-09-23T20:47:07.297Z,36.10
2022-09-23T20:49:36.557Z,36.30
2022-09-23T20:52:04.705Z,36.20
2022-09-23T20:54:34.175Z,36.30
2022-09-23T20:57:02.745Z,36.30
2022-09-23T20:59:30.992Z,36.60
2022-09-23T21:01:59.228Z,36.10
2022-09-23T21:04:28.019Z,36.70
2022-09-23T21:06:57.504Z,36.30
2022-09-23T21:09:27.255Z,36.30
2022-09-23T21:11:57.163Z,36.20
2022-09-23T21:14:26.038Z,36.40
2022-09-23T21:16:54.759Z,36.50
2022-09-23T21:19:24.561Z,36.70
2022-09-23T21:21:52.773Z,36.40
2022-09-23T21:27:11.582Z,36.50
2022-09-23T21:29:40.305Z,36.50
2022-09-23T21:32:10.387Z,36.50
2022-09-23T21:34:38.542Z,36.50
2022-09-23T21:37:06.935Z,36.60
2022-09-23T21:39:35.552Z,36.60
2022-09-23T21:42:05.924Z,36.30
2022-09-23T21:44:35.886Z,36.40
2022-09-23T21:47:04.041Z,36.60
2022-09-23T21:49:33.307Z,36.30
2022-09-23T21:52:01.535Z,36.20
2022-09-23T21:54:31.218Z,36.50
2022-09-23T21:57:00.572Z,36.80
2022-09-23T21:59:30.745Z,36.60
2022-09-23T22:02:00.263Z,36.80
2022-09-23T22:04:28.689Z,36.80
2022-09-23T22:06:57.549Z,36.90
2022-09-23T22:09:26.638Z,36.90
2022-09-23T22:12:09.739Z,36.90
2022-09-23T22:14:42.828Z,37.00
2022-09-23T22:17:16.655Z,36.70
2022-09-23T22:19:47.411Z,37.10
2022-09-23T22:22:17.982Z,37.00
2022-09-23T22:24:48.220Z,37.40
2022-09-23T22:27:19.308Z,37.00
2022-09-23T22:30:06.130Z,37.20
2022-09-23T22:32:41.771Z,37.50
2022-09-23T22:35:11.971Z,37.50
2022-09-23T22:37:40.714Z,37.50
2022-09-23T22:40:14.350Z,39.10
2022-09-23T22:42:43.992Z,39.00
2022-09-23T22:45:13.164Z,38.90
2022-09-23T22:47:45.675Z,39.10
2022-09-23T22:50:16.548Z,39.00
2022-09-23T22:52:45.522Z,39.30
2022-09-23T22:55:14.560Z,39.50
2022-09-23T22:57:42.864Z,39.30
2022-09-23T23:00:13.047Z,39.50
2022-09-23T23:02:42.986Z,39.00
2022-09-23T23:05:11.501Z,39.40
2022-09-23T23:07:40.665Z,39.50
2022-09-23T23:10:10.297Z,39.70
2022-09-23T23:12:39.270Z,39.70
2022-09-23T23:15:12.886Z,39.50
2022-09-23T23:17:43.287Z,39.60
2022-09-23T23:20:13.338Z,39.50
2022-09-23T23:22:41.611Z,39.80
2022-09-23T23:25:10.653Z,39.50
2022-09-23T23:27:39.832Z,39.50
2022-09-23T23:30:09.499Z,39.60
2022-09-23T23:32:38.724Z,39.60
2022-09-23T23:35:09.468Z,39.80
2022-09-23T23:37:38.405Z,39.70
2022-09-23T23:40:07.921Z,39.90
2022-09-23T23:42:36.252Z,40.40
2022-09-23T23:45:05.023Z,40.10
2022-09-23T23:47:34.211Z,39.90
2022-09-23T23:50:06.542Z,40.00
2022-09-23T23:52:36.031Z,39.70
2022-09-23T23:55:04.578Z,40.00
2022-09-23T23:57:32.752Z,40.00
